createdAt,value
2022-11-13T00:00:43.471Z,20.33
2022-11-13T00:03:37.074Z,19.70
2022-11-13T00:06:29.019Z,20.20
2022-11-13T00:09:20.408Z,19.58
2022-11-13T00:12:11.974Z,20.15
2022-11-13T00:15:05.178Z,25.33
2022-11-13T00:20:51.007Z,22.88
2022-11-13T00:23:42.476Z,19.90
2022-11-13T00:26:33.709Z,20.83
2022-11-13T00:29:26.023Z,21.25
2022-11-13T00:32:20.530Z,21.23
2022-11-13T00:35:12.298Z,22.33
2022-11-13T00:38:03.718Z,20.45
2022-11-13T00:40:55.121Z,24.17
2022-11-13T00:43:46.812Z,25.77
2022-11-13T00:46:37.989Z,23.67
2022-11-13T00:49:31.014Z,27.08
2022-11-13T00:52:22.675Z,23.52
2022-11-13T00:55:14.175Z,22.88
2022-11-13T00:58:08.076Z,30.95
2022-11-13T01:01:05.698Z,26.48
2022-11-13T01:03:58.398Z,29.58
2022-11-13T01:06:52.915Z,27.40
2022-11-13T01:09:46.154Z,24.45
2022-11-13T01:12:38.213Z,27.60
2022-11-13T01:15:30.410Z,27.85
2022-11-13T01:18:22.056Z,32.10
2022-11-13T01:21:16.571Z,24.48
2022-11-13T01:24:11.928Z,26.77
2022-11-13T01:27:03.848Z,27.05
2022-11-13T01:29:58.246Z,29.40
2022-11-13T01:32:49.626Z,25.85
2022-11-13T01:35:42.844Z,24.88
2022-11-13T01:38:36.733Z,26.10
2022-11-13T01:41:31.833Z,25.63
2022-11-13T01:44:23.405Z,24.98
2022-11-13T01:47:15.250Z,25.55
2022-11-13T01:50:07.489Z,27.15
2022-11-13T01:52:59.124Z,25.27
2022-11-13T01:55:51.262Z,31.13
2022-11-13T01:58:47.558Z,24.50
2022-11-13T02:01:38.887Z,27.65
2022-11-13T02:04:31.445Z,29.00
2022-11-13T02:07:23.380Z,24.25
2022-11-13T02:10:14.977Z,26.58
2022-11-13T02:13:06.803Z,27.13
2022-11-13T02:16:00.079Z,26.95
2022-11-13T02:21:54.194Z,28.83
2022-11-13T02:24:52.252Z,25.23
2022-11-13T02:27:48.284Z,25.08
2022-11-13T02:30:39.861Z,24.52
2022-11-13T02:33:34.082Z,25.00
2022-11-13T02:36:31.760Z,23.27
2022-11-13T02:39:24.922Z,24.92
2022-11-13T02:45:09.587Z,24.75
2022-11-13T02:48:01.586Z,26.17
2022-11-13T02:50:53.559Z,23.85
2022-11-13T02:53:48.423Z,26.10
2022-11-13T02:56:39.845Z,23.67
2022-11-13T02:59:32.126Z,26.10
2022-11-13T03:02:23.914Z,24.60
2022-11-13T03:05:15.638Z,22.40
2022-11-13T03:08:07.544Z,24.05
2022-11-13T03:10:59.191Z,22.83
2022-11-13T03:13:50.449Z,22.92
2022-11-13T03:16:43.446Z,21.90
2022-11-13T03:19:36.445Z,21.92
2022-11-13T03:22:28.123Z,23.33
2022-11-13T03:25:19.571Z,22.13
2022-11-13T03:28:11.589Z,23.70
2022-11-13T03:31:03.196Z,23.63
2022-11-13T03:33:56.633Z,21.50
2022-11-13T03:36:48.867Z,19.05
2022-11-13T03:39:40.346Z,23.08
2022-11-13T03:42:36.213Z,24.15
2022-11-13T03:45:27.976Z,20.77
2022-11-13T03:48:19.354Z,20.20
2022-11-13T03:51:12.504Z,22.65
2022-11-13T03:54:04.180Z,19.85
2022-11-13T03:56:55.304Z,20.70
2022-11-13T03:59:47.012Z,18.73
2022-11-13T04:02:38.748Z,18.25
2022-11-13T04:05:30.905Z,19.42
2022-11-13T04:08:23.842Z,18.92
2022-11-13T04:11:15.491Z,18.10
2022-11-13T04:14:06.654Z,18.77
2022-11-13T04:16:58.309Z,19.50
2022-11-13T04:19:49.461Z,18.60
2022-11-13T04:22:40.965Z,17.42
2022-11-13T04:25:34.267Z,18.48
2022-11-13T04:28:26.081Z,17.75
2022-11-13T04:31:17.893Z,17.40
2022-11-13T04:34:09.821Z,17.65
2022-11-13T04:37:04.280Z,19.17
2022-11-13T04:39:56.355Z,15.52
2022-11-13T04:42:54.420Z,17.33
2022-11-13T04:45:46.096Z,17.83
2022-11-13T04:48:37.629Z,16.70
2022-11-13T04:51:28.858Z,16.75
2022-11-13T04:54:24.309Z,17.40
2022-11-13T04:57:18.851Z,14.65
2022-11-13T05:00:12.915Z,18.48
2022-11-13T05:03:04.453Z,14.82
2022-11-13T05:06:03.147Z,16.30
2022-11-13T05:08:54.867Z,15.43
2022-11-13T05:11:46.217Z,14.93
2022-11-13T05:14:38.435Z,15.30
2022-11-13T05:17:31.636Z,17.45
2022-11-13T05:20:23.286Z,15.32
2022-11-13T05:23:14.987Z,16.17
2022-11-13T05:26:08.899Z,14.02
2022-11-13T05:29:01.324Z,14.48
2022-11-13T05:31:52.625Z,14.38
2022-11-13T05:34:45.446Z,18.17
2022-11-13T05:37:37.112Z,13.82
2022-11-13T05:40:31.090Z,15.55
2022-11-13T05:43:26.364Z,15.00
2022-11-13T05:46:22.322Z,16.27
2022-11-13T05:49:13.617Z,14.57
2022-11-13T05:52:06.357Z,14.50
2022-11-13T05:54:58.051Z,16.13
2022-11-13T05:57:49.649Z,17.23
2022-11-13T06:00:41.439Z,16.52
2022-11-13T06:03:33.351Z,15.23
2022-11-13T06:06:26.833Z,14.75
2022-11-13T06:09:22.570Z,15.02
2022-11-13T06:12:13.740Z,16.27
2022-11-13T06:15:05.837Z,14.93
2022-11-13T06:17:56.996Z,15.43
2022-11-13T06:20:48.467Z,17.13
2022-11-13T06:23:41.607Z,13.90
2022-11-13T06:26:36.334Z,16.88
2022-11-13T06:29:28.598Z,15.68
2022-11-13T06:32:19.955Z,15.68
2022-11-13T06:35:11.486Z,15.35
2022-11-13T06:38:03.087Z,16.33
2022-11-13T06:41:00.158Z,16.88
2022-11-13T06:43:55.640Z,17.88
2022-11-13T06:46:49.549Z,13.27
2022-11-13T06:49:41.530Z,12.43
2022-11-13T06:52:33.657Z,13.10
2022-11-13T06:55:26.113Z,13.93
2022-11-13T06:58:17.842Z,15.50
2022-11-13T07:01:12.039Z,15.43
2022-11-13T07:04:04.735Z,14.13
2022-11-13T07:06:56.026Z,15.43
2022-11-13T07:09:47.491Z,13.98
2022-11-13T07:12:38.929Z,13.73
2022-11-13T07:15:30.228Z,14.13
2022-11-13T07:18:24.231Z,14.18
2022-11-13T07:21:15.563Z,12.70
2022-11-13T07:24:10.426Z,11.85
2022-11-13T07:27:04.057Z,10.75
2022-11-13T07:29:59.488Z,14.63
2022-11-13T07:32:54.161Z,16.52
2022-11-13T07:35:46.657Z,12.77
2022-11-13T07:38:37.926Z,14.30
2022-11-13T07:41:29.303Z,11.82
2022-11-13T07:44:47.748Z,13.27
2022-11-13T07:47:31.864Z,12.55
2022-11-13T07:50:33.028Z,15.20
2022-11-13T07:53:25.841Z,14.15
2022-11-13T07:56:22.762Z,13.67
2022-11-13T07:59:14.881Z,14.45
2022-11-13T08:02:07.402Z,14.20
2022-11-13T08:04:58.787Z,13.20
2022-11-13T08:07:51.519Z,12.65
2022-11-13T08:10:46.045Z,11.68
2022-11-13T08:13:38.488Z,14.65
2022-11-13T08:16:29.664Z,13.93
2022-11-13T08:19:21.076Z,14.85
2022-11-13T08:22:12.010Z,14.35
2022-11-13T08:25:03.236Z,12.68
2022-11-13T08:27:56.027Z,13.68
2022-11-13T08:30:47.599Z,13.98
2022-11-13T08:33:38.916Z,13.27
2022-11-13T08:36:30.876Z,11.65
2022-11-13T08:39:22.291Z,14.55
2022-11-13T08:42:13.452Z,13.32
2022-11-13T08:45:06.790Z,14.27
2022-11-13T08:48:01.239Z,18.35
2022-11-13T08:50:53.611Z,13.95
2022-11-13T08:53:45.280Z,13.10
2022-11-13T08:56:36.377Z,18.90
2022-11-13T08:59:28.086Z,12.88
2022-11-13T09:02:20.863Z,14.73
2022-11-13T09:05:12.561Z,14.48
2022-11-13T09:08:04.136Z,14.93
2022-11-13T09:10:55.045Z,14.40
2022-11-13T09:13:50.663Z,14.93
2022-11-13T09:16:44.605Z,16.67
2022-11-13T09:19:37.246Z,14.30
2022-11-13T09:22:29.200Z,15.13
2022-11-13T09:25:20.570Z,14.88
2022-11-13T09:28:11.759Z,15.60
2022-11-13T09:31:05.222Z,17.85
2022-11-13T09:33:57.655Z,19.58
2022-11-13T09:36:50.282Z,15.40
2022-11-13T09:39:41.623Z,16.67
2022-11-13T09:42:42.326Z,18.48
2022-11-13T09:45:36.026Z,17.88
2022-11-13T09:51:25.906Z,19.20
2022-11-13T09:54:19.142Z,19.70
2022-11-13T09:57:25.770Z,18.10
2022-11-13T10:00:20.272Z,21.42
2022-11-13T10:03:59.353Z,19.90
2022-11-13T10:06:50.622Z,20.63
2022-11-13T10:09:55.314Z,20.63
2022-11-13T10:12:49.726Z,19.08
2022-11-13T10:15:44.134Z,27.33
2022-11-13T10:18:38.919Z,22.30
2022-11-13T10:21:36.407Z,21.52
2022-11-13T10:24:31.172Z,18.17
2022-11-13T10:27:25.439Z,21.33
2022-11-13T10:30:44.140Z,21.70
2022-11-13T10:33:35.766Z,24.13
2022-11-13T10:36:36.512Z,19.83
2022-11-13T10:39:29.314Z,22.20
2022-11-13T10:42:28.513Z,23.88
2022-11-13T10:45:23.016Z,19.50
2022-11-13T10:48:32.813Z,19.17
2022-11-13T10:51:26.939Z,21.58
2022-11-13T10:54:25.207Z,20.83
2022-11-13T10:57:28.962Z,20.85
2022-11-13T11:00:23.380Z,20.67
2022-11-13T11:03:15.945Z,23.50
2022-11-13T11:06:08.127Z,21.20
2022-11-13T11:09:07.370Z,20.52
2022-11-13T11:12:18.982Z,18.65
2022-11-13T11:15:22.250Z,20.08
2022-11-13T11:18:25.853Z,13.40
2022-11-13T11:21:22.304Z,17.77
2022-11-13T11:24:18.310Z,18.50
2022-11-13T11:27:17.894Z,19.25
2022-11-13T11:30:19.652Z,17.42
2022-11-13T11:33:16.636Z,20.13
2022-11-13T11:36:16.935Z,22.15
2022-11-13T11:39:26.926Z,20.27
2022-11-13T11:42:28.883Z,18.05
2022-11-13T11:45:27.825Z,16.75
2022-11-13T11:48:22.704Z,18.65
2022-11-13T11:51:22.275Z,19.90
2022-11-13T11:54:27.597Z,22.70
2022-11-13T11:57:40.368Z,17.88
2022-11-13T12:00:34.276Z,16.65
2022-11-13T12:03:47.810Z,16.27
2022-11-13T12:06:50.447Z,16.77
2022-11-13T12:09:48.434Z,15.85
2022-11-13T12:12:56.285Z,17.15
2022-11-13T12:15:58.806Z,14.48
2022-11-13T12:19:00.689Z,15.25
2022-11-13T12:22:06.218Z,15.70
2022-11-13T12:25:10.177Z,14.20
2022-11-13T12:28:12.951Z,16.35
2022-11-13T12:31:15.522Z,16.92
2022-11-13T12:34:17.378Z,17.38
2022-11-13T12:37:15.529Z,14.23
2022-11-13T12:40:14.014Z,17.20
2022-11-13T12:43:33.663Z,15.73
2022-11-13T12:46:35.817Z,16.30
2022-11-13T12:49:30.766Z,14.35
2022-11-13T12:52:24.543Z,15.15
2022-11-13T12:55:28.852Z,15.38
2022-11-13T12:58:22.835Z,17.85
2022-11-13T13:01:18.905Z,15.65
2022-11-13T13:04:41.386Z,14.52
2022-11-13T13:08:44.080Z,15.13
2022-11-13T13:11:44.882Z,13.68
2022-11-13T13:14:54.029Z,19.35
2022-11-13T13:18:08.278Z,17.98
2022-11-13T13:21:06.253Z,17.38
2022-11-13T13:24:09.880Z,14.35
2022-11-13T13:27:41.300Z,13.50
2022-11-13T13:30:49.548Z,14.13
2022-11-13T13:38:05.867Z,13.90
2022-11-13T13:42:05.723Z,14.02
2022-11-13T13:59:45.782Z,11.02
2022-11-13T14:03:29.265Z,13.82
2022-11-13T14:06:30.182Z,13.68
2022-11-13T14:09:23.373Z,13.20
2022-11-13T14:16:17.078Z,14.38
2022-11-13T14:20:13.263Z,13.50
2022-11-13T14:23:16.473Z,14.48
2022-11-13T14:26:11.075Z,13.40
2022-11-13T14:29:03.868Z,14.90
2022-11-13T14:31:55.643Z,12.18
2022-11-13T14:34:49.412Z,12.52
2022-11-13T14:41:39.877Z,12.00
2022-11-13T14:44:32.769Z,12.00
2022-11-13T14:47:40.764Z,13.18
2022-11-13T14:51:47.386Z,11.40
2022-11-13T14:54:46.975Z,14.35
2022-11-13T14:57:51.285Z,16.65
2022-11-13T15:01:36.770Z,16.48
2022-11-13T15:07:48.657Z,15.00
2022-11-13T15:10:40.510Z,14.73
2022-11-13T15:13:33.121Z,14.00
2022-11-13T15:16:28.936Z,13.97
2022-11-13T15:19:26.764Z,13.45
2022-11-13T15:23:00.344Z,13.93
2022-11-13T15:25:51.860Z,15.20
2022-11-13T15:28:45.281Z,11.07
2022-11-13T15:31:39.576Z,14.75
2022-11-13T15:34:31.065Z,13.10
2022-11-13T15:37:22.564Z,13.40
2022-11-13T15:40:15.157Z,10.93
2022-11-13T15:43:16.422Z,14.73
2022-11-13T15:46:26.838Z,13.80
2022-11-13T15:49:18.108Z,13.93
2022-11-13T15:52:10.742Z,11.05
2022-11-13T15:55:03.150Z,13.17
2022-11-13T15:58:05.194Z,19.43
2022-11-13T16:01:06.338Z,14.40
2022-11-13T16:04:14.091Z,12.40
2022-11-13T16:07:25.227Z,13.75
2022-11-13T16:10:50.297Z,12.23
2022-11-13T16:13:42.108Z,12.60
2022-11-13T16:16:38.314Z,11.20
2022-11-13T16:19:31.935Z,12.93
2022-11-13T16:22:24.647Z,13.10
2022-11-13T16:25:18.892Z,11.15
2022-11-13T16:28:16.393Z,13.52
2022-11-13T16:31:08.346Z,13.45
2022-11-13T16:33:59.875Z,11.93
2022-11-13T16:36:53.388Z,13.00
2022-11-13T16:39:45.565Z,11.55
2022-11-13T16:42:37.223Z,12.45
2022-11-13T16:45:29.150Z,9.35
2022-11-13T16:48:20.675Z,10.90
2022-11-13T16:51:12.204Z,11.70
2022-11-13T16:54:12.487Z,8.88
2022-11-13T16:57:06.362Z,10.43
2022-11-13T16:59:57.614Z,10.55
2022-11-13T17:02:53.299Z,10.35
2022-11-13T17:05:44.780Z,11.38
2022-11-13T17:08:36.055Z,10.77
2022-11-13T17:11:33.058Z,10.48
2022-11-13T17:14:24.827Z,9.73
2022-11-13T17:17:16.182Z,9.10
2022-11-13T17:20:11.744Z,8.30
2022-11-13T17:23:02.982Z,8.10
2022-11-13T17:25:54.387Z,8.32
2022-11-13T17:28:47.173Z,11.45
2022-11-13T17:31:38.310Z,9.30
2022-11-13T17:34:29.932Z,12.00
2022-11-13T17:37:25.335Z,10.10
2022-11-13T17:40:17.467Z,11.77
2022-11-13T17:43:10.411Z,10.30
2022-11-13T17:46:05.592Z,12.57
2022-11-13T17:48:57.193Z,9.70
2022-11-13T17:51:51.268Z,11.27
2022-11-13T17:54:44.045Z,12.18
2022-11-13T17:57:40.592Z,14.05
2022-11-13T18:00:32.502Z,11.80
2022-11-13T18:03:25.227Z,13.13
2022-11-13T18:06:20.050Z,11.10
2022-11-13T18:09:12.135Z,12.45
2022-11-13T18:12:04.118Z,10.85
2022-11-13T18:14:58.139Z,9.32
2022-11-13T18:17:49.517Z,11.85
2022-11-13T18:20:42.940Z,11.10
2022-11-13T18:23:34.481Z,10.32
2022-11-13T18:26:25.608Z,13.00
2022-11-13T18:29:17.707Z,11.15
2022-11-13T18:32:12.352Z,10.85
2022-11-13T18:35:05.159Z,12.05
2022-11-13T18:38:00.830Z,10.38
2022-11-13T18:40:53.073Z,11.88
2022-11-13T18:43:45.271Z,11.00
2022-11-13T18:47:12.579Z,12.55
2022-11-13T18:50:03.999Z,11.07
2022-11-13T18:52:56.513Z,12.63
2022-11-13T18:56:21.695Z,14.35
2022-11-13T19:00:51.096Z,12.10
2022-11-13T19:04:08.155Z,13.30
2022-11-13T19:07:19.033Z,10.68
2022-11-13T19:10:18.036Z,12.30
2022-11-13T19:13:11.894Z,14.10
2022-11-13T19:19:47.714Z,14.82
2022-11-13T19:22:41.899Z,11.65
2022-11-13T19:25:35.174Z,14.25
2022-11-13T19:28:32.597Z,12.85
2022-11-13T19:35:22.966Z,15.30
2022-11-13T19:38:29.224Z,13.85
2022-11-13T19:41:29.455Z,11.55
2022-11-13T19:44:21.598Z,14.40
2022-11-13T19:47:13.428Z,13.48
2022-11-13T19:50:06.351Z,15.93
2022-11-13T19:53:02.249Z,12.93
2022-11-13T19:55:59.573Z,12.98
2022-11-13T19:58:52.853Z,14.35
2022-11-13T20:04:36.266Z,16.30
2022-11-13T20:07:31.296Z,13.30
2022-11-13T20:10:24.279Z,14.85
2022-11-13T20:13:20.812Z,12.90
2022-11-13T20:16:22.402Z,15.65
2022-11-13T20:19:23.687Z,16.35
2022-11-13T20:22:15.718Z,14.82
2022-11-13T20:25:12.878Z,12.70
2022-11-13T20:28:10.300Z,15.50
2022-11-13T20:31:11.713Z,13.52
2022-11-13T20:34:04.011Z,14.65
2022-11-13T20:36:58.461Z,16.83
2022-11-13T20:39:49.930Z,14.52
2022-11-13T20:42:41.671Z,14.70
2022-11-13T20:45:36.503Z,14.65
2022-11-13T20:48:30.701Z,15.45
2022-11-13T20:51:24.627Z,18.10
2022-11-13T20:54:16.257Z,14.38
2022-11-13T20:57:09.338Z,12.82
2022-11-13T21:00:00.884Z,14.98
2022-11-13T21:02:54.490Z,14.95
2022-11-13T21:05:47.256Z,13.45
2022-11-13T21:08:43.573Z,16.40
2022-11-13T21:11:35.747Z,13.65
2022-11-13T21:14:27.573Z,15.02
2022-11-13T21:17:19.245Z,12.70
2022-11-13T21:20:21.039Z,12.90
2022-11-13T21:23:19.362Z,14.15
2022-11-13T21:26:11.238Z,13.20
2022-11-13T21:29:02.983Z,12.93
2022-11-13T21:31:54.888Z,14.68
2022-11-13T21:34:47.245Z,14.35
2022-11-13T21:37:39.856Z,13.27
2022-11-13T21:40:31.271Z,16.00
2022-11-13T21:43:22.652Z,12.63
2022-11-13T21:46:15.067Z,15.05
2022-11-13T21:49:09.680Z,12.77
2022-11-13T21:52:00.879Z,12.73
2022-11-13T21:54:53.829Z,11.73
2022-11-13T21:57:45.165Z,11.80
2022-11-13T22:00:37.043Z,12.70
2022-11-13T22:03:29.421Z,11.27
2022-11-13T22:06:23.168Z,14.43
2022-11-13T22:09:18.923Z,11.63
2022-11-13T22:12:14.318Z,12.05
2022-11-13T22:15:08.999Z,14.80
2022-11-13T22:18:03.771Z,14.68
2022-11-13T22:21:00.167Z,10.98
2022-11-13T22:23:51.711Z,11.85
2022-11-13T22:26:46.060Z,12.38
2022-11-13T22:29:38.866Z,13.25
2022-11-13T22:32:30.614Z,14.17
2022-11-13T22:35:23.514Z,12.80
2022-11-13T22:38:15.383Z,12.68
2022-11-13T22:41:12.825Z,13.85
2022-11-13T22:44:06.926Z,14.00
2022-11-13T22:46:59.570Z,10.77
2022-11-13T22:49:51.461Z,13.75
2022-11-13T22:52:42.467Z,17.38
2022-11-13T22:55:34.547Z,11.50
2022-11-13T22:58:25.980Z,11.35
2022-11-13T23:01:19.351Z,13.07
2022-11-13T23:04:15.183Z,12.32
2022-11-13T23:07:06.720Z,11.85
2022-11-13T23:09:58.104Z,13.27
2022-11-13T23:12:51.472Z,11.38
2022-11-13T23:15:43.129Z,11.35
2022-11-13T23:18:34.912Z,10.48
2022-11-13T23:21:28.586Z,13.30
2022-11-13T23:24:19.884Z,11.45
2022-11-13T23:27:11.503Z,12.40
2022-11-13T23:30:07.432Z,13.27
2022-11-13T23:32:58.899Z,10.45
2022-11-13T23:35:50.954Z,14.18
2022-11-13T23:38:43.920Z,12.25
2022-11-13T23:41:35.545Z,11.05
2022-11-13T23:44:27.053Z,12.63
2022-11-13T23:47:21.187Z,13.02
2022-11-13T23:50:12.346Z,10.88
2022-11-13T23:53:05.463Z,11.73
2022-11-13T23:55:58.357Z,11.57
2022-11-13T23:58:52.709Z,13.88
